SWA8312 KCMH-KCMH
Flight info
| Callsign | SWA8312 |
|---|---|
| Flight time | 0h 12m |
| Altitude | |
| Route | |
| Aircraft | B737/M-SDE2E3FGHIRWXY/LB1 |
Departure
| Time | 2026-05-09 01:19 |
|---|---|
| Airport | John Glenn Columbus International Airport (KCMH) |
Arrival
| Time | 2026-05-09 01:31 |
|---|---|
| Airport | John Glenn Columbus International Airport (KCMH) |
| Time | Latitude | Longitude | Altitude | Speed | Heading |
|---|---|---|---|---|---|
| 2026-05-09 01:03 | 39.99929 | -82.87725 | 823 ft | 0 kts | 272° |
| 2026-05-09 01:05 | 39.99911 | -82.87750 | 823 ft | 11 kts | 198° |
| 2026-05-09 01:05 | 39.99830 | -82.87714 | 823 ft | 11 kts | 174° |
| 2026-05-09 01:05 | 39.99699 | -82.87645 | 823 ft | 15 kts | 121° |
| 2026-05-09 01:06 | 39.99632 | -82.87485 | 823 ft | 21 kts | 111° |
| 2026-05-09 01:06 | 39.99579 | -82.87330 | 823 ft | 16 kts | 149° |
| 2026-05-09 01:06 | 39.99485 | -82.87311 | 823 ft | 11 kts | 183° |
| 2026-05-09 01:06 | 39.99435 | -82.87314 | 823 ft | 0 kts | 182° |
| 2026-05-09 01:07 | 39.99426 | -82.87314 | 823 ft | 7 kts | 181° |
| 2026-05-09 01:08 | 39.99353 | -82.87317 | 823 ft | 6 kts | 236° |
| 2026-05-09 01:08 | 39.99359 | -82.87413 | 823 ft | 26 kts | 276° |
| 2026-05-09 01:08 | 39.99367 | -82.87568 | 823 ft | 0 kts | 272° |
| 2026-05-09 01:09 | 39.99367 | -82.87569 | 823 ft | 0 kts | 272° |
| 2026-05-09 01:09 | 39.99367 | -82.87574 | 823 ft | 4 kts | 272° |
| 2026-05-09 01:10 | 39.99375 | -82.87673 | 823 ft | 14 kts | 275° |
| 2026-05-09 01:10 | 39.99378 | -82.87759 | 823 ft | 0 kts | 272° |
| 2026-05-09 01:10 | 39.99398 | -82.87779 | 823 ft | 13 kts | 338° |
| 2026-05-09 01:10 | 39.99518 | -82.87786 | 823 ft | 17 kts | 2° |
| 2026-05-09 01:11 | 39.99581 | -82.87731 | 823 ft | 9 kts | 91° |
| 2026-05-09 01:11 | 39.99571 | -82.87607 | 823 ft | 20 kts | 93° |
| 2026-05-09 01:11 | 39.99561 | -82.87409 | 823 ft | 20 kts | 96° |
| 2026-05-09 01:11 | 39.99538 | -82.87326 | 823 ft | 6 kts | 152° |
| 2026-05-09 01:12 | 39.99480 | -82.87313 | 823 ft | 9 kts | 182° |
| 2026-05-09 01:12 | 39.99444 | -82.87316 | 823 ft | 0 kts | 182° |
| 2026-05-09 01:13 | 39.99434 | -82.87301 | 823 ft | 5 kts | 76° |
| 2026-05-09 01:13 | 39.99497 | -82.87306 | 823 ft | 15 kts | 355° |
| 2026-05-09 01:14 | 39.99574 | -82.87392 | 823 ft | 14 kts | 270° |
| 2026-05-09 01:14 | 39.99571 | -82.87534 | 823 ft | 20 kts | 270° |
| 2026-05-09 01:14 | 39.99583 | -82.87724 | 823 ft | 18 kts | 278° |
| 2026-05-09 01:14 | 39.99590 | -82.87823 | 823 ft | 11 kts | 274° |
| 2026-05-09 01:15 | 39.99598 | -82.87966 | 823 ft | 16 kts | 296° |
| 2026-05-09 01:15 | 39.99701 | -82.87989 | 823 ft | 20 kts | 7° |
| 2026-05-09 01:15 | 39.99840 | -82.87976 | 823 ft | 19 kts | 2° |
| 2026-05-09 01:15 | 39.99953 | -82.87965 | 823 ft | 14 kts | 5° |
| 2026-05-09 01:16 | 40.00043 | -82.87955 | 823 ft | 11 kts | 5° |
| 2026-05-09 01:16 | 40.00084 | -82.87953 | 823 ft | 0 kts | 1° |
| 2026-05-09 01:17 | 40.00139 | -82.87946 | 823 ft | 14 kts | 10° |
| 2026-05-09 01:18 | 40.00160 | -82.87958 | 823 ft | 6 kts | 284° |
| 2026-05-09 01:18 | 40.00174 | -82.88173 | 823 ft | 55 kts | 272° |
| 2026-05-09 01:18 | 40.00216 | -82.88985 | 823 ft | 125 kts | 277° |
| 2026-05-09 01:18 | 40.00278 | -82.90332 | 1044 ft | 162 kts | 269° |
| 2026-05-09 01:19 | 40.00250 | -82.91800 | 1889 ft | 160 kts | 264° |
| 2026-05-09 01:19 | 40.00140 | -82.93211 | 2874 ft | 151 kts | 265° |
| 2026-05-09 01:19 | 40.00166 | -82.94599 | 3651 ft | 160 kts | 273° |
| 2026-05-09 01:19 | 40.00284 | -82.96187 | 3992 ft | 190 kts | 274° |
| 2026-05-09 01:20 | 40.00424 | -82.97998 | 4040 ft | 210 kts | 274° |
| 2026-05-09 01:20 | 40.00569 | -82.99891 | 4030 ft | 213 kts | 274° |
| 2026-05-09 01:20 | 40.00717 | -83.01757 | 4197 ft | 195 kts | 276° |
| 2026-05-09 01:20 | 40.01317 | -83.03271 | 4598 ft | 203 kts | 315° |
| 2026-05-09 01:21 | 40.02725 | -83.03946 | 5010 ft | 227 kts | 353° |
| 2026-05-09 01:21 | 40.04246 | -83.03353 | 5046 ft | 240 kts | 32° |
| 2026-05-09 01:21 | 40.05219 | -83.01596 | 5361 ft | 248 kts | 71° |
| 2026-05-09 01:21 | 40.05414 | -82.99321 | 5903 ft | 256 kts | 89° |
| 2026-05-09 01:22 | 40.05416 | -82.97005 | 5995 ft | 254 kts | 92° |
| 2026-05-09 01:22 | 40.05402 | -82.94725 | 5994 ft | 248 kts | 92° |
| 2026-05-09 01:22 | 40.05394 | -82.92502 | 5996 ft | 242 kts | 92° |
| 2026-05-09 01:22 | 40.05393 | -82.90330 | 5995 ft | 239 kts | 92° |
| 2026-05-09 01:23 | 40.05393 | -82.88191 | 5997 ft | 237 kts | 92° |
| 2026-05-09 01:23 | 40.05396 | -82.86056 | 6000 ft | 236 kts | 92° |
| 2026-05-09 01:23 | 40.05399 | -82.83906 | 6003 ft | 237 kts | 92° |
| 2026-05-09 01:23 | 40.05406 | -82.81760 | 5952 ft | 233 kts | 92° |
| 2026-05-09 01:24 | 40.05413 | -82.79658 | 5646 ft | 234 kts | 93° |
| 2026-05-09 01:24 | 40.05416 | -82.77524 | 5344 ft | 234 kts | 92° |
| 2026-05-09 01:24 | 40.05419 | -82.75414 | 5089 ft | 233 kts | 92° |
| 2026-05-09 01:24 | 40.05417 | -82.73322 | 4845 ft | 231 kts | 92° |
| 2026-05-09 01:25 | 40.05414 | -82.71221 | 4559 ft | 231 kts | 92° |
| 2026-05-09 01:25 | 40.05401 | -82.69160 | 4300 ft | 228 kts | 97° |
| 2026-05-09 01:25 | 40.04784 | -82.67313 | 3935 ft | 218 kts | 139° |
| 2026-05-09 01:25 | 40.03500 | -82.66474 | 3679 ft | 202 kts | 173° |
| 2026-05-09 01:26 | 40.02151 | -82.66309 | 3574 ft | 189 kts | 184° |
| 2026-05-09 01:26 | 40.01010 | -82.66867 | 3418 ft | 173 kts | 226° |
| 2026-05-09 01:26 | 40.00371 | -82.68087 | 3385 ft | 156 kts | 240° |
| 2026-05-09 01:26 | 39.99862 | -82.69319 | 3082 ft | 154 kts | 242° |
| 2026-05-09 01:27 | 39.99362 | -82.70564 | 2980 ft | 157 kts | 247° |
| 2026-05-09 01:27 | 39.99230 | -82.71981 | 2993 ft | 162 kts | 269° |
| 2026-05-09 01:27 | 39.99316 | -82.73469 | 2952 ft | 167 kts | 273° |
| 2026-05-09 01:27 | 39.99417 | -82.74963 | 2744 ft | 161 kts | 272° |
| 2026-05-09 01:28 | 39.99503 | -82.76374 | 2536 ft | 153 kts | 272° |
| 2026-05-09 01:28 | 39.99582 | -82.77754 | 2323 ft | 153 kts | 273° |
| 2026-05-09 01:28 | 39.99661 | -82.79126 | 2158 ft | 144 kts | 273° |
| 2026-05-09 01:28 | 39.99733 | -82.80399 | 1924 ft | 142 kts | 274° |
| 2026-05-09 01:29 | 39.99806 | -82.81682 | 1723 ft | 140 kts | 274° |
| 2026-05-09 01:29 | 39.99876 | -82.82922 | 1568 ft | 135 kts | 273° |
| 2026-05-09 01:29 | 39.99947 | -82.84127 | 1362 ft | 131 kts | 273° |
| 2026-05-09 01:29 | 40.00015 | -82.85333 | 1221 ft | 136 kts | 273° |
| 2026-05-09 01:30 | 40.00073 | -82.86555 | 1062 ft | 135 kts | 272° |
| 2026-05-09 01:30 | 40.00151 | -82.87753 | 862 ft | 135 kts | 274° |
| 2026-05-09 01:30 | 40.00217 | -82.88945 | 824 ft | 120 kts | 274° |
| 2026-05-09 01:30 | 40.00267 | -82.89836 | 823 ft | 70 kts | 274° |
| 2026-05-09 01:31 | 40.00291 | -82.90252 | 823 ft | 23 kts | 274° |
| 2026-05-09 01:31 | 40.00226 | -82.90365 | 823 ft | 13 kts | 180° |
| 2026-05-09 01:31 | 40.00202 | -82.90365 | 823 ft | 0 kts | 179° |
| 2026-05-09 01:31 | 40.00201 | -82.90365 | 823 ft | 0 kts | 179° |
| 2026-05-09 01:32 | 40.00187 | -82.90353 | 823 ft | 6 kts | 124° |
| 2026-05-09 01:32 | 40.00171 | -82.90256 | 823 ft | 15 kts | 92° |
| 2026-05-09 01:32 | 40.00162 | -82.90083 | 823 ft | 21 kts | 94° |
| 2026-05-09 01:32 | 40.00152 | -82.89900 | 823 ft | 19 kts | 94° |
| 2026-05-09 01:33 | 40.00144 | -82.89732 | 823 ft | 21 kts | 92° |
| 2026-05-09 01:33 | 40.00131 | -82.89517 | 823 ft | 24 kts | 97° |
| 2026-05-09 01:33 | 40.00122 | -82.89313 | 823 ft | 21 kts | 93° |
| 2026-05-09 01:33 | 40.00113 | -82.89132 | 823 ft | 19 kts | 93° |
| 2026-05-09 01:34 | 40.00102 | -82.88945 | 823 ft | 22 kts | 93° |
| 2026-05-09 01:34 | 40.00094 | -82.88752 | 823 ft | 20 kts | 94° |
| 2026-05-09 01:34 | 40.00078 | -82.88573 | 823 ft | 19 kts | 97° |
| 2026-05-09 01:34 | 40.00070 | -82.88419 | 823 ft | 15 kts | 89° |
| 2026-05-09 01:35 | 40.00070 | -82.88267 | 823 ft | 21 kts | 90° |
| 2026-05-09 01:35 | 40.00063 | -82.88072 | 823 ft | 16 kts | 95° |
| 2026-05-09 01:35 | 40.00054 | -82.87988 | 823 ft | 4 kts | 99° |
| 2026-05-09 01:35 | 40.00052 | -82.87958 | 823 ft | 5 kts | 69° |
| 2026-05-09 01:36 | 40.00069 | -82.87952 | 823 ft | 1 kts | 1° |
| 2026-05-09 01:36 | 40.00073 | -82.87952 | 823 ft | 2 kts | 1° |
| 2026-05-09 01:36 | 40.00157 | -82.87943 | 823 ft | 14 kts | 356° |
| 2026-05-09 01:36 | 40.00166 | -82.88025 | 823 ft | 19 kts | 276° |
| 2026-05-09 01:37 | 40.00183 | -82.88266 | 823 ft | 32 kts | 274° |
| 2026-05-09 01:37 | 40.00210 | -82.88870 | 823 ft | 103 kts | 274° |
| 2026-05-09 01:37 | 40.00275 | -82.90069 | 876 ft | 157 kts | 280° |
| 2026-05-09 01:37 | 40.00425 | -82.91464 | 1680 ft | 154 kts | 282° |
| 2026-05-09 01:38 | 40.00594 | -82.92834 | 2372 ft | 157 kts | 280° |
| 2026-05-09 01:38 | 40.00610 | -82.94294 | 2920 ft | 170 kts | 266° |
| 2026-05-09 01:38 | 40.00643 | -82.95961 | 3383 ft | 198 kts | 274° |
| 2026-05-09 01:38 | 40.00773 | -82.97854 | 3946 ft | 221 kts | 274° |
| 2026-05-09 01:39 | 40.00948 | -82.99954 | 4586 ft | 241 kts | 278° |
| 2026-05-09 01:39 | 40.01743 | -83.01943 | 4933 ft | 263 kts | 311° |
| 2026-05-09 01:39 | 40.03365 | -83.03134 | 5000 ft | 279 kts | 342° |
| 2026-05-09 01:39 | 40.05328 | -83.03074 | 5018 ft | 287 kts | 8° |
| 2026-05-09 01:40 | 40.07225 | -83.02363 | 5026 ft | 287 kts | 13° |
| 2026-05-09 01:40 | 40.09129 | -83.01624 | 5017 ft | 284 kts | 13° |
| 2026-05-09 01:40 | 40.10899 | -83.00477 | 4974 ft | 289 kts | 38° |
| 2026-05-09 01:40 | 40.12016 | -82.98312 | 4983 ft | 293 kts | 70° |
| 2026-05-09 01:41 | 40.12207 | -82.95687 | 5016 ft | 292 kts | 96° |
| 2026-05-09 01:41 | 40.11917 | -82.93061 | 5032 ft | 290 kts | 101° |
| 2026-05-09 01:41 | 40.11562 | -82.90483 | 5021 ft | 290 kts | 102° |
| 2026-05-09 01:41 | 40.11208 | -82.87888 | 5009 ft | 288 kts | 102° |
| 2026-05-09 01:42 | 40.10863 | -82.85365 | 5002 ft | 274 kts | 103° |
| 2026-05-09 01:42 | 40.10542 | -82.82994 | 4988 ft | 257 kts | 103° |
| 2026-05-09 01:42 | 40.10250 | -82.80784 | 4980 ft | 242 kts | 103° |
| 2026-05-09 01:42 | 40.09979 | -82.78676 | 4966 ft | 231 kts | 103° |
| 2026-05-09 01:43 | 40.09721 | -82.76627 | 4970 ft | 226 kts | 103° |
| 2026-05-09 01:43 | 40.09472 | -82.74614 | 4984 ft | 225 kts | 102° |
| 2026-05-09 01:43 | 40.09220 | -82.72571 | 5001 ft | 226 kts | 103° |
| 2026-05-09 01:43 | 40.08968 | -82.70547 | 5009 ft | 230 kts | 103° |
| 2026-05-09 01:44 | 40.08711 | -82.68470 | 5014 ft | 232 kts | 102° |
| 2026-05-09 01:44 | 40.08453 | -82.66396 | 5013 ft | 231 kts | 103° |
| 2026-05-09 01:44 | 40.08206 | -82.64355 | 5006 ft | 227 kts | 102° |
| 2026-05-09 01:44 | 40.07958 | -82.62324 | 5015 ft | 226 kts | 103° |
| 2026-05-09 01:45 | 40.07712 | -82.60293 | 5006 ft | 225 kts | 102° |
| 2026-05-09 01:45 | 40.07213 | -82.58404 | 4954 ft | 217 kts | 133° |
| 2026-05-09 01:45 | 40.06038 | -82.57403 | 4796 ft | 196 kts | 171° |
| 2026-05-09 01:45 | 40.04721 | -82.57168 | 4501 ft | 194 kts | 180° |
| 2026-05-09 01:46 | 40.03355 | -82.57060 | 4238 ft | 193 kts | 182° |
| 2026-05-09 01:46 | 40.02068 | -82.57035 | 4088 ft | 182 kts | 196° |
| 2026-05-09 01:46 | 40.01101 | -82.57880 | 4026 ft | 162 kts | 239° |
| 2026-05-09 01:46 | 40.00418 | -82.58985 | 4057 ft | 162 kts | 211° |
| 2026-05-09 01:47 | 39.99304 | -82.59339 | 4090 ft | 165 kts | 215° |
| 2026-05-09 01:47 | 39.98635 | -82.60470 | 4173 ft | 163 kts | 252° |
| 2026-05-09 01:47 | 39.98586 | -82.61939 | 4166 ft | 166 kts | 271° |
| 2026-05-09 01:47 | 39.98708 | -82.63433 | 4114 ft | 167 kts | 272° |
| 2026-05-09 01:48 | 39.98826 | -82.64936 | 4071 ft | 165 kts | 272° |
| 2026-05-09 01:48 | 39.98928 | -82.66444 | 3994 ft | 166 kts | 271° |
| 2026-05-09 01:48 | 39.99020 | -82.67925 | 3776 ft | 162 kts | 271° |
| 2026-05-09 01:48 | 39.99105 | -82.69366 | 3561 ft | 160 kts | 271° |
| 2026-05-09 01:49 | 39.99191 | -82.70843 | 3359 ft | 166 kts | 271° |
| 2026-05-09 01:49 | 39.99275 | -82.72323 | 3134 ft | 164 kts | 272° |
| 2026-05-09 01:49 | 39.99360 | -82.73800 | 2914 ft | 164 kts | 272° |
| 2026-05-09 01:49 | 39.99443 | -82.75278 | 2696 ft | 161 kts | 272° |
| 2026-05-09 01:50 | 39.99524 | -82.76697 | 2470 ft | 153 kts | 272° |
| 2026-05-09 01:50 | 39.99600 | -82.78054 | 2296 ft | 148 kts | 273° |
| 2026-05-09 01:50 | 39.99674 | -82.79356 | 2109 ft | 138 kts | 273° |
| 2026-05-09 01:50 | 39.99757 | -82.80578 | 1904 ft | 132 kts | 275° |
| 2026-05-09 01:51 | 39.99857 | -82.81758 | 1747 ft | 132 kts | 273° |
| 2026-05-09 01:51 | 39.99915 | -82.82934 | 1561 ft | 130 kts | 272° |
| 2026-05-09 01:51 | 39.99963 | -82.84099 | 1404 ft | 127 kts | 271° |
| 2026-05-09 01:51 | 40.00007 | -82.85257 | 1214 ft | 131 kts | 271° |
| 2026-05-09 01:52 | 40.00072 | -82.86467 | 1113 ft | 134 kts | 273° |
| 2026-05-09 01:52 | 40.00145 | -82.87664 | 916 ft | 131 kts | 273° |
| 2026-05-09 01:52 | 40.00209 | -82.88807 | 828 ft | 120 kts | 271° |
| 2026-05-09 01:52 | 40.00263 | -82.89742 | 823 ft | 78 kts | 270° |
| 2026-05-09 01:53 | 40.00286 | -82.90192 | 823 ft | 34 kts | 272° |
| 2026-05-09 01:53 | 40.00257 | -82.90350 | 823 ft | 10 kts | 205° |
| 2026-05-09 01:53 | 40.00212 | -82.90363 | 823 ft | 9 kts | 189° |
| 2026-05-09 01:53 | 40.00207 | -82.90364 | 823 ft | 0 kts | 190° |
| 2026-05-09 01:54 | 40.00195 | -82.90361 | 823 ft | 8 kts | 157° |
| 2026-05-09 01:54 | 40.00171 | -82.90232 | 823 ft | 20 kts | 96° |
| 2026-05-09 01:54 | 40.00159 | -82.90055 | 823 ft | 22 kts | 93° |
| 2026-05-09 01:54 | 40.00146 | -82.89801 | 823 ft | 31 kts | 90° |
| 2026-05-09 01:55 | 40.00133 | -82.89531 | 823 ft | 30 kts | 97° |
| 2026-05-09 01:55 | 40.00117 | -82.89238 | 823 ft | 33 kts | 95° |
| 2026-05-09 01:55 | 40.00103 | -82.88983 | 823 ft | 22 kts | 93° |
| 2026-05-09 01:55 | 40.00095 | -82.88809 | 823 ft | 15 kts | 93° |
| 2026-05-09 01:56 | 40.00088 | -82.88689 | 823 ft | 12 kts | 95° |
| 2026-05-09 01:56 | 40.00083 | -82.88585 | 823 ft | 12 kts | 93° |
| 2026-05-09 01:56 | 40.00079 | -82.88486 | 823 ft | 13 kts | 92° |
| 2026-05-09 01:56 | 40.00022 | -82.88402 | 823 ft | 13 kts | 186° |
| 2026-05-09 01:57 | 39.99995 | -82.88355 | 823 ft | 5 kts | 109° |
| 2026-05-09 01:57 | 39.99979 | -82.88326 | 823 ft | 3 kts | 163° |
| 2026-05-09 01:57 | 39.99962 | -82.88328 | 823 ft | 5 kts | 186° |
| 2026-05-09 01:57 | 39.99941 | -82.88329 | 823 ft | 1 kts | 167° |
| 2026-05-09 01:58 | 39.99906 | -82.88296 | 823 ft | 12 kts | 145° |
| 2026-05-09 01:58 | 39.99875 | -82.88289 | 823 ft | 1 kts | 185° |
| 2026-05-09 01:58 | 39.99842 | -82.88290 | 823 ft | 1 kts | 182° |
| 2026-05-09 01:58 | 39.99840 | -82.88290 | 823 ft | 0 kts | 182° |